Terminal Aerodrome Forecast
Issued by NWS Melbourne, FL

Home | Current Version | Previous Version | Text Only | Print | Product List | Glossary On
Versions: 1 2 3 4 5 6 7 8 9 10 11 12 13 14 15
000
FTUS42 KMLB 231700
TAFMLB
TAF
KMLB 231722Z 2318/2418 02007KT P6SM VCSH BKN030 BKN110
      TEMPO 2319/2322 4SM TSRA BKN020CB BKN040
     FM232200 20005KT P6SM VCTS SCT030CB BKN050
     FM240200 16003KT P6SM VCSH SCT040 BKN140
     FM240400 VRB02KT P6SM FEW035 BKN120
      TEMPO 2409/2412 5SM BR FEW005=

USA.gov is the U.S. government's official web portal to all federal, state and local government web resources and services.